Time;durP1;ratioP1;P1;durP2;ratioP2;P2;SDS_P1;SDS_P2;PMS_P1;PMS_P2;Temp;Humidity;BMP_temperature;BMP_pressure;BME280_temperature;BME280_humidity;BME280_pressure;Samples;Min_cycle;Max_cycle;Signal;HPM_P1;HPM_P2
2022/11/03 00:01:49;;;;;;;33.13;18.02;;;;;;;16.06;100.00;101549.34;5023455;28;20041;-76
2022/11/03 00:04:20;;;;;;;32.53;18.40;;;;;;;16.07;100.00;101543.53;5003626;28;20057;-76
2022/11/03 00:06:53;;;;;;;32.17;17.20;;;;;;;16.09;100.00;101538.53;5011807;28;20045;-76
2022/11/03 00:09:22;;;;;;;35.10;18.10;;;;;;;16.02;100.00;101543.59;4997907;28;20049;-76
2022/11/03 00:11:50;;;;;;;31.10;17.10;;;;;;;16.02;100.00;101542.78;5012062;28;20165;-76
2022/11/03 00:14:19;;;;;;;31.23;17.92;;;;;;;16.02;100.00;101542.78;5011157;28;20389;-76
2022/11/03 00:16:47;;;;;;;39.67;18.70;;;;;;;16.05;100.00;101548.53;5011712;28;20061;-76
2022/11/03 00:19:16;;;;;;;31.77;17.25;;;;;;;16.09;100.00;101543.25;5011790;28;20065;-76
2022/11/03 00:21:44;;;;;;;34.30;16.98;;;;;;;16.09;100.00;101552.34;5010821;28;20462;-75
2022/11/03 00:24:12;;;;;;;28.60;16.33;;;;;;;16.09;100.00;101552.34;5010697;28;20052;-76
2022/11/03 00:26:40;;;;;;;34.05;17.02;;;;;;;16.16;100.00;101546.47;5014062;28;20045;-76
2022/11/03 00:29:13;;;;;;;29.27;16.63;;;;;;;16.16;100.00;101545.63;5014465;28;20061;-76
2022/11/03 00:31:42;;;;;;;29.20;17.13;;;;;;;16.10;100.00;101548.47;5022447;28;20060;-76
2022/11/03 00:34:11;;;;;;;31.42;16.92;;;;;;;16.12;100.00;101543.47;5023690;28;20045;-76
2022/11/03 00:36:41;;;;;;;33.90;17.60;;;;;;;16.12;100.00;101543.47;5008659;28;20489;-76
2022/11/03 00:39:10;;;;;;;29.00;17.00;;;;;;;16.10;100.00;101533.84;5019206;28;20046;-76
2022/11/03 00:41:38;;;;;;;37.75;17.98;;;;;;;16.14;100.00;101540.44;5015060;28;20050;-76
2022/11/03 00:44:09;;;;;;;31.33;17.75;;;;;;;16.11;100.00;101549.28;5017082;28;20049;-75
2022/11/03 00:46:37;;;;;;;25.83;16.48;;;;;;;16.11;100.00;101543.75;5015692;28;20044;-76
2022/11/03 00:49:05;;;;;;;31.27;18.30;;;;;;;16.02;100.00;101540.03;5014894;28;20054;-76
2022/11/03 00:51:36;;;;;;;28.63;16.80;;;;;;;16.03;100.00;101542.47;5017144;28;20049;-76
2022/11/03 00:54:05;;;;;;;27.05;16.20;;;;;;;16.03;100.00;101536.94;5015226;28;20346;-76
2022/11/03 00:56:36;;;;;;;33.90;16.40;;;;;;;16.07;100.00;101535.25;5015430;28;20386;-76
2022/11/03 00:59:06;;;;;;;27.83;16.33;;;;;;;16.04;100.00;101538.56;5018717;28;20392;-76
2022/11/03 01:01:39;;;;;;;29.42;17.20;;;;;;;15.94;100.00;101545.03;5013804;28;20064;-76
2022/11/03 01:07:06;;;;;;;28.50;15.63;;;;;;;15.84;100.00;101532.16;5014419;28;20795;-76
2022/11/03 01:09:37;;;;;;;34.65;17.55;;;;;;;15.78;100.00;101536.09;5013895;28;20050;-76
2022/11/03 01:12:12;;;;;;;25.65;15.85;;;;;;;15.84;100.00;101531.34;5013971;28;20409;-76
2022/11/03 01:14:45;;;;;;;28.58;17.10;;;;;;;15.89;100.00;101522.19;5020581;28;20045;-76
2022/11/03 01:17:22;;;;;;;27.02;14.93;;;;;;;15.88;100.00;101521.34;5019437;28;20041;-76
2022/11/03 01:19:51;;;;;;;30.75;16.45;;;;;;;15.89;100.00;101522.19;5015079;28;20516;-76
2022/11/03 01:22:20;;;;;;;29.00;16.83;;;;;;;15.90;100.00;101516.38;5014442;28;20050;-75
2022/11/03 01:24:48;;;;;;;29.38;16.23;;;;;;;15.87;100.00;101518.91;5013883;28;20057;-76
2022/11/03 01:27:19;;;;;;;26.55;16.38;;;;;;;15.86;100.00;101509.78;5013914;28;20065;-76
2022/11/03 01:29:47;;;;;;;29.58;15.07;;;;;;;15.87;100.00;101505.91;5007566;28;20057;-76
2022/11/03 01:32:15;;;;;;;31.92;16.40;;;;;;;15.84;100.00;101510.06;5016057;28;20065;-76
2022/11/03 01:34:43;;;;;;;32.28;16.25;;;;;;;15.78;100.00;101502.16;5016105;28;20046;-76
2022/11/03 01:37:11;;;;;;;27.67;15.80;;;;;;;15.84;100.00;101507.31;5025883;28;20050;-76
2022/11/03 01:39:39;;;;;;;27.85;15.77;;;;;;;15.83;100.00;101508.44;5014070;28;20052;-76
2022/11/03 01:42:12;;;;;;;24.52;15.25;;;;;;;15.79;100.00;101499.09;5014105;28;20093;-76
2022/11/03 01:44:47;;;;;;;31.30;15.40;;;;;;;15.71;100.00;101496.97;5017202;28;20041;-76
2022/11/03 01:47:28;;;;;;;33.67;16.90;;;;;;;15.70;100.00;101493.38;5000762;28;20300;-76
2022/11/03 01:50:01;;;;;;;28.63;15.68;;;;;;;15.76;100.00;101488.66;5013959;28;20062;-76
2022/11/03 01:52:46;;;;;;;27.48;15.23;;;;;;;15.85;100.00;101486.88;5018916;28;20042;-76
2022/11/03 01:55:28;;;;;;;30.50;16.85;;;;;;;15.91;100.00;101481.28;5017519;28;20049;-76
2022/11/03 01:58:04;;;;;;;27.52;14.38;;;;;;;15.88;100.00;101479.13;5014333;28;20064;-76
2022/11/03 02:00:33;;;;;;;28.90;14.32;;;;;;;15.83;100.00;101477.25;5013016;28;20505;-75
2022/11/03 02:03:02;;;;;;;30.55;14.50;;;;;;;15.86;100.00;101476.66;5014992;28;20468;-75
2022/11/03 02:05:30;;;;;;;28.20;15.13;;;;;;;15.80;100.00;101467.59;5013506;28;20053;-75
2022/11/03 02:08:06;;;;;;;25.88;15.35;;;;;;;15.91;100.00;101459.22;5012458;28;20064;-76
2022/11/03 02:10:36;;;;;;;27.92;14.27;;;;;;;15.85;100.00;101469.50;5014647;28;20050;-75
2022/11/03 02:13:17;;;;;;;26.05;14.20;;;;;;;15.75;100.00;101459.41;5013495;28;20374;-75
2022/11/03 02:15:47;;;;;;;24.48;13.98;;;;;;;15.76;100.00;101461.06;5012739;28;20050;-75
2022/11/03 02:18:19;;;;;;;25.20;14.57;;;;;;;15.73;100.00;101450.59;5019232;28;20060;-76
2022/11/03 02:20:57;;;;;;;25.27;14.48;;;;;;;15.71;100.00;101452.81;5027178;28;20068;-75
2022/11/03 02:23:36;;;;;;;24.83;14.57;;;;;;;15.69;100.00;101460.59;5013444;28;20057;-76
2022/11/03 02:26:06;;;;;;;22.92;13.57;;;;;;;15.61;100.00;101461.22;5021991;28;20060;-76
2022/11/03 02:28:35;;;;;;;26.38;14.13;;;;;;;15.51;100.00;101462.97;5012491;28;20408;-76
2022/11/03 02:31:22;;;;;;;24.85;14.80;;;;;;;15.47;100.00;101459.16;5012890;28;20046;-76
2022/11/03 02:34:07;;;;;;;25.08;14.40;;;;;;;15.47;100.00;101459.16;5013940;28;20042;-76
2022/11/03 02:37:29;;;;;;;21.90;12.95;;;;;;;15.35;100.00;101445.75;5014243;28;20496;-76
2022/11/03 02:40:21;;;;;;;31.25;13.32;;;;;;;15.34;100.00;101454.34;4971696;28;20055;-76
2022/11/03 02:42:51;;;;;;;21.17;12.45;;;;;;;15.29;100.00;101452.44;5005319;28;20045;-76
2022/11/03 02:45:24;;;;;;;22.00;11.68;;;;;;;15.24;100.00;101455.25;5012239;28;20397;-76
2022/11/03 02:47:56;;;;;;;24.10;11.68;;;;;;;15.22;100.00;101461.06;5012987;28;20084;-76
2022/11/03 02:50:29;;;;;;;18.25;11.82;;;;;;;15.19;100.00;101461.63;5011840;28;20061;-76
2022/11/03 02:52:57;;;;;;;20.38;10.13;;;;;;;15.18;100.00;101471.00;5012965;28;20050;-76
2022/11/03 02:55:34;;;;;;;16.23;9.70;;;;;;;15.14;100.00;101461.66;5012190;28;20550;-76
2022/11/03 02:58:31;;;;;;;18.25;10.05;;;;;;;15.13;100.00;101454.50;5012506;28;20046;-76
2022/11/03 03:01:13;;;;;;;20.45;10.50;;;;;;;15.24;100.00;101460.78;5012834;28;20053;-76
2022/11/03 03:03:51;;;;;;;17.83;8.88;;;;;;;15.24;100.00;101460.78;5019619;28;20049;-75
2022/11/03 03:06:32;;;;;;;16.35;8.05;;;;;;;15.13;100.00;101471.06;5012461;28;20042;-76
2022/11/03 03:09:06;;;;;;;13.77;8.48;;;;;;;15.02;100.00;101462.06;5012666;28;20497;-76
2022/11/03 03:11:36;;;;;;;14.23;7.53;;;;;;;14.96;100.00;101449.44;5003015;28;20383;-76
2022/11/03 03:14:15;;;;;;;17.23;8.10;;;;;;;14.93;100.00;101450.81;5006348;28;20043;-76
2022/11/03 03:16:53;;;;;;;13.23;7.72;;;;;;;14.89;100.00;101450.59;5003285;28;20378;-76
2022/11/03 03:19:37;;;;;;;13.05;7.68;;;;;;;14.87;100.00;101443.72;5007489;28;20524;-76
2022/11/03 03:22:23;;;;;;;12.18;7.43;;;;;;;14.87;100.00;101439.00;5010837;28;20049;-76
2022/11/03 03:25:13;;;;;;;13.52;8.27;;;;;;;14.87;100.00;101443.72;5006942;28;20058;-76
2022/11/03 03:27:47;;;;;;;16.15;8.27;;;;;;;14.85;100.00;101440.41;5005791;28;20489;-76
2022/11/03 03:30:16;;;;;;;;;;;;;;;14.82;100.00;101438.25;5012224;28;20056;-76
2022/11/03 03:32:48;;;;;;;13.68;8.13;;;;;;;14.83;100.00;101439.88;4999506;28;19922;-76
2022/11/03 03:35:26;;;;;;;13.35;8.02;;;;;;;14.75;100.00;101433.03;5008103;28;20057;-76
2022/11/03 03:38:00;;;;;;;17.02;8.48;;;;;;;14.71;100.00;101427.25;5010628;28;20053;-76
2022/11/03 03:40:37;;;;;;;14.93;8.43;;;;;;;14.67;100.00;101434.47;5012320;28;20056;-76
2022/11/03 03:43:08;;;;;;;15.18;8.50;;;;;;;14.65;100.00;101428.41;5020239;28;20053;-76
2022/11/03 03:45:37;;;;;;;15.45;9.27;;;;;;;14.64;100.00;101437.78;5013293;28;20046;-76
2022/11/03 03:48:06;;;;;;;19.10;9.13;;;;;;;14.57;100.00;101449.13;5019221;28;20057;-76
2022/11/03 03:50:38;;;;;;;19.40;9.77;;;;;;;14.54;100.00;101444.19;5012001;28;20041;-76
2022/11/03 03:53:10;;;;;;;16.42;9.23;;;;;;;14.52;100.00;101443.66;5017650;28;20045;-76
2022/11/03 03:55:42;;;;;;;20.65;8.85;;;;;;;14.48;100.00;101445.34;5012845;28;20048;-76
2022/11/03 03:58:12;;;;;;;16.65;8.55;;;;;;;14.41;100.00;101444.84;5012279;28;20053;-76
2022/11/03 04:00:41;;;;;;;15.93;8.98;;;;;;;14.44;100.00;101445.09;5014356;28;20049;-76
2022/11/03 04:03:16;;;;;;;18.83;9.55;;;;;;;14.47;100.00;101450.00;5023370;28;20049;-76
2022/11/03 04:05:45;;;;;;;15.23;9.50;;;;;;;14.44;100.00;101444.25;5018430;28;20054;-76
2022/11/03 04:08:14;;;;;;;20.13;10.10;;;;;;;14.43;100.00;101454.47;5015997;28;20041;-76
2022/11/03 04:24:35;;;;;;;14.52;6.97;;;;;;;14.60;100.00;101444.97;5018501;28;20060;-76
2022/11/03 04:27:31;;;;;;;14.85;8.00;;;;;;;14.51;100.00;101440.06;5015680;28;20049;-76
2022/11/03 04:30:16;;;;;;;16.25;7.82;;;;;;;14.45;100.00;101441.22;5014469;28;20058;-76
2022/11/03 04:32:46;;;;;;;13.85;7.97;;;;;;;14.40;100.00;101444.00;5015664;28;20050;-76
2022/11/03 04:35:17;;;;;;;14.95;6.95;;;;;;;14.44;100.00;101439.59;5015635;28;20050;-76
2022/11/03 04:37:50;;;;;;;12.45;7.22;;;;;;;14.38;100.00;101424.19;5018501;28;20061;-76
2022/11/03 04:40:18;;;;;;;16.27;8.05;;;;;;;14.43;100.00;101431.59;5015270;28;20041;-76
2022/11/03 04:42:46;;;;;;;11.85;7.47;;;;;;;14.43;100.00;101429.69;5018700;28;20053;-76
2022/11/03 04:45:27;;;;;;;12.65;7.78;;;;;;;14.33;100.00;101427.78;5018346;28;21508;-76
2022/11/03 04:47:58;;;;;;;19.73;9.10;;;;;;;14.43;100.00;101420.59;5015188;28;20053;-76
2022/11/03 04:50:26;;;;;;;15.38;8.25;;;;;;;14.47;100.00;101411.44;5014926;28;20385;-76
2022/11/03 04:52:56;;;;;;;13.80;7.90;;;;;;;14.42;100.00;101419.75;5015033;28;20508;-76
2022/11/03 04:55:25;;;;;;;15.18;8.43;;;;;;;14.47;100.00;101411.44;5014726;28;20504;-76
2022/11/03 04:57:57;;;;;;;15.90;8.77;;;;;;;14.43;100.00;101406.81;5018778;28;20130;-76
2022/11/03 05:00:25;;;;;;;12.90;8.48;;;;;;;14.33;100.00;101407.72;5014955;28;20429;-76
2022/11/03 05:02:53;;;;;;;12.27;8.27;;;;;;;14.23;100.00;101412.16;5014972;28;20050;-76
2022/11/03 05:05:25;;;;;;;13.23;7.88;;;;;;;14.26;100.00;101397.00;5014467;28;20053;-76
2022/11/03 05:07:55;;;;;;;15.77;8.65;;;;;;;14.20;100.00;101392.63;5025542;28;20054;-77
2022/11/03 05:10:25;;;;;;;15.25;8.48;;;;;;;14.19;100.00;101397.34;5014693;28;20492;-76
2022/11/03 05:12:53;;;;;;;18.40;9.32;;;;;;;14.17;100.00;101402.28;5014458;28;20072;-76
2022/11/03 05:15:34;;;;;;;20.30;9.13;;;;;;;14.10;100.00;101397.13;5016083;28;20049;-76
2022/11/03 05:18:30;;;;;;;20.08;8.93;;;;;;;14.13;100.00;101409.44;5014674;28;20053;-76
2022/11/03 05:21:08;;;;;;;17.38;9.13;;;;;;;14.13;100.00;101406.69;5008554;28;20050;-76
2022/11/03 05:23:49;;;;;;;16.98;9.30;;;;;;;14.18;100.00;101403.13;5014794;28;20057;-76
2022/11/03 05:26:23;;;;;;;19.33;9.02;;;;;;;14.15;100.00;101399.00;5013649;28;20072;-76
2022/11/03 05:28:58;;;;;;;22.60;9.95;;;;;;;14.15;100.00;101401.75;5017690;28;20140;-76
2022/11/03 05:31:27;;;;;;;17.42;9.05;;;;;;;14.19;100.00;101399.25;5020423;28;20046;-76
2022/11/03 05:34:01;;;;;;;15.98;8.57;;;;;;;14.13;100.00;101389.38;5021607;28;20060;-85
2022/11/03 05:36:32;;;;;;;21.98;8.73;;;;;;;14.61;100.00;101373.06;5013566;28;20053;-88
2022/11/03 05:39:30;;;;;;;20.05;9.05;;;;;;;14.83;100.00;101382.00;5013148;28;20061;-87
2022/11/03 05:41:59;;;;;;;15.25;8.30;;;;;;;14.89;100.00;101384.44;5016177;28;20404;-87
2022/11/03 05:44:36;;;;;;;15.80;9.00;;;;;;;15.09;99.34;101376.25;5032676;28;20042;-86
2022/11/03 05:47:35;;;;;;;15.95;8.68;;;;;;;14.96;99.65;101373.06;5004192;28;20401;-87
2022/11/03 05:50:24;;;;;;;15.18;8.75;;;;;;;14.88;100.00;101370.94;5008501;28;20062;-87
2022/11/03 05:53:18;;;;;;;19.08;9.27;;;;;;;15.03;99.64;101378.25;5009372;28;20046;-87
2022/11/03 05:55:46;;;;;;;14.80;8.35;;;;;;;15.27;98.32;101371.94;5007539;28;20050;-87
2022/11/03 05:58:24;;;;;;;19.08;8.85;;;;;;;15.19;98.16;101370.63;5020196;28;20059;-87
2022/11/03 06:00:53;;;;;;;17.52;8.52;;;;;;;15.26;98.03;101379.38;5020341;28;20061;-89
2022/11/03 06:03:28;;;;;;;15.10;9.18;;;;;;;15.45;97.20;101373.94;5014137;28;20046;-88
2022/11/03 06:05:57;;;;;;;16.38;9.38;;;;;;;15.45;96.99;101378.66;5013718;28;20058;-85
2022/11/03 06:08:32;;;;;;;16.80;9.20;;;;;;;15.43;97.31;101386.38;5008895;28;20053;-86
2022/11/03 06:11:02;;;;;;;15.20;8.98;;;;;;;15.43;97.62;101391.88;5007233;28;20104;-86
2022/11/03 06:13:36;;;;;;;19.77;9.32;;;;;;;15.53;96.95;101380.75;4999693;28;20029;-86
2022/11/03 06:16:36;;;;;;;16.88;9.32;;;;;;;15.55;96.74;101380.47;5013658;28;20052;-86
2022/11/03 06:19:20;;;;;;;20.23;9.80;;;;;;;15.48;97.07;101372.53;5013643;28;20481;-86
2022/11/03 06:21:50;;;;;;;17.63;10.00;;;;;;;15.44;97.85;101374.22;5013234;28;20405;-86
2022/11/03 06:24:22;;;;;;;19.40;9.70;;;;;;;15.64;96.49;101381.44;5012489;28;20066;-84
2022/11/03 06:26:51;;;;;;;17.63;9.25;;;;;;;15.69;95.67;101384.13;5013403;28;20598;-85
2022/11/03 06:29:20;;;;;;;20.42;10.73;;;;;;;15.73;94.86;101384.38;5010215;28;20053;-84
2022/11/03 06:31:51;;;;;;;18.00;10.00;;;;;;;15.82;94.50;101387.28;5012909;28;20058;-84
2022/11/03 06:34:33;;;;;;;19.58;9.82;;;;;;;15.75;94.49;101392.34;5013306;28;20397;-84
2022/11/03 06:37:11;;;;;;;18.30;11.38;;;;;;;15.84;94.02;101407.94;5011710;28;20507;-84
2022/11/03 06:39:40;;;;;;;22.38;10.88;;;;;;;15.69;94.85;101399.88;5010378;28;20048;-77
2022/11/03 06:42:13;;;;;;;17.67;8.52;;;;;;;15.35;97.09;101409.91;5007414;28;20077;-76
2022/11/03 06:44:46;;;;;;;20.73;8.97;;;;;;;15.24;97.82;101413.91;5013255;28;20046;-74
2022/11/03 06:47:23;;;;;;;19.13;9.18;;;;;;;15.20;98.18;101419.16;5012913;28;20296;-74
2022/11/03 06:49:53;;;;;;;15.73;8.50;;;;;;;15.09;99.97;101414.84;5012885;28;20054;-74
2022/11/03 06:52:29;;;;;;;16.27;8.73;;;;;;;15.16;98.69;101416.16;4999307;28;20042;-74
2022/11/03 06:55:06;;;;;;;14.80;8.15;;;;;;;15.10;99.08;101419.25;5012629;28;20045;-75
2022/11/03 06:57:45;;;;;;;19.23;9.05;;;;;;;14.99;99.75;101410.25;5001037;28;20370;-74
2022/11/03 07:00:28;;;;;;;19.38;9.02;;;;;;;15.03;100.00;101412.16;5012794;28;20077;-74
2022/11/03 07:03:08;;;;;;;19.55;9.43;;;;;;;15.06;99.55;101410.75;5012689;28;20077;-74
2022/11/03 07:05:37;;;;;;;15.43;8.82;;;;;;;15.14;99.98;101426.66;5012449;28;20042;-74
2022/11/03 07:08:28;;;;;;;20.50;10.70;;;;;;;15.19;99.14;101431.28;5012332;28;20057;-74
2022/11/03 07:10:58;;;;;;;14.98;9.05;;;;;;;15.30;98.59;101424.56;5010985;28;20497;-74
2022/11/03 07:13:27;;;;;;;20.95;9.43;;;;;;;15.29;98.92;101422.94;5012306;28;20046;-74
2022/11/03 07:15:55;;;;;;;16.88;8.18;;;;;;;15.28;98.28;101418.53;5012084;28;20396;-74
2022/11/03 07:18:38;;;;;;;15.88;8.68;;;;;;;15.42;98.16;101417.84;5011197;28;20046;-74
2022/11/03 07:21:18;;;;;;;18.45;9.95;;;;;;;15.49;98.73;101417.50;5012158;28;20034;-74
2022/11/03 07:23:46;;;;;;;20.23;9.20;;;;;;;15.53;96.66;101413.84;5012447;28;20045;-74
2022/11/03 07:26:14;;;;;;;16.58;8.77;;;;;;;15.50;95.92;101419.94;5012261;28;20038;-75
2022/11/03 07:28:42;;;;;;;23.17;9.25;;;;;;;15.65;95.81;101423.66;5012228;28;20068;-74
2022/11/03 07:31:19;;;;;;;16.23;9.25;;;;;;;15.56;97.14;101418.75;5012062;28;20046;-74
2022/11/03 07:33:47;;;;;;;17.35;8.30;;;;;;;15.63;97.67;101414.84;5012323;28;20058;-74
2022/11/03 07:36:19;;;;;;;21.98;9.15;;;;;;;15.66;96.37;101423.38;4997651;28;20081;-74
2022/11/03 07:38:51;;;;;;;16.95;8.55;;;;;;;15.71;96.67;101425.22;4998288;28;20108;-74
2022/11/03 07:41:22;;;;;;;21.58;9.40;;;;;;;15.76;96.53;101419.66;5012019;28;20065;-74
2022/11/03 07:43:54;;;;;;;15.65;8.23;;;;;;;15.58;98.01;101422.06;5011330;28;20068;-74
2022/11/03 07:46:24;;;;;;;14.65;8.93;;;;;;;15.67;97.48;101413.97;5011998;28;20038;-74
2022/11/03 07:49:01;;;;;;;15.77;8.30;;;;;;;15.72;98.06;101413.06;5012000;28;20050;-74
2022/11/03 07:51:36;;;;;;;21.02;8.98;;;;;;;15.80;98.35;101411.59;5012084;28;20061;-74
2022/11/03 07:54:07;;;;;;;15.35;8.05;;;;;;;15.88;97.79;101418.41;5027098;28;20058;-74
2022/11/03 07:56:51;;;;;;;14.38;8.10;;;;;;;15.92;97.05;101403.75;5012169;28;20061;-74
2022/11/03 07:59:28;;;;;;;13.83;7.90;;;;;;;16.04;96.30;101411.59;4999875;28;20053;-74
2022/11/03 08:01:57;;;;;;;14.60;7.90;;;;;;;15.99;97.31;101406.16;5011578;28;20050;-72
2022/11/03 08:04:28;;;;;;;16.80;9.02;;;;;;;16.17;96.69;101406.47;5011416;28;20038;-74
2022/11/03 08:06:56;;;;;;;15.25;8.38;;;;;;;16.07;95.88;101396.38;5011679;28;20061;-74
2022/11/03 08:09:24;;;;;;;18.88;9.15;;;;;;;16.11;94.94;101398.25;5011736;28;20045;-74
2022/11/03 08:11:52;;;;;;;17.88;8.80;;;;;;;16.11;95.75;101395.50;5011914;28;20069;-74
2022/11/03 08:14:20;;;;;;;16.20;8.52;;;;;;;16.20;95.40;101397.56;5012034;28;20054;-74
2022/11/03 08:16:48;;;;;;;17.48;8.85;;;;;;;16.30;96.40;101397.44;5011676;28;20061;-74
2022/11/03 08:19:16;;;;;;;25.17;10.30;;;;;;;16.28;95.09;101387.81;5011741;28;20050;-74
2022/11/03 08:21:44;;;;;;;21.77;10.75;;;;;;;16.27;96.10;101392.50;5011432;28;20046;-74
2022/11/03 08:24:12;;;;;;;18.80;10.20;;;;;;;16.38;96.28;101391.22;5010924;28;20541;-74
2022/11/03 08:26:40;;;;;;;22.52;9.10;;;;;;;16.45;95.67;101387.25;5012006;28;20536;-74
2022/11/03 08:29:08;;;;;;;21.02;9.15;;;;;;;16.49;96.11;101385.53;5011943;28;20516;-74
2022/11/03 08:31:36;;;;;;;19.23;9.82;;;;;;;16.59;94.45;101377.09;5011652;28;20057;-74
2022/11/03 08:34:04;;;;;;;18.45;9.05;;;;;;;16.46;95.80;101383.38;5011733;28;20053;-74
2022/11/03 08:36:32;;;;;;;16.30;8.23;;;;;;;16.38;95.52;101377.41;4997579;28;20050;-73
2022/11/03 08:39:00;;;;;;;14.63;9.35;;;;;;;16.48;95.65;101381.16;5011619;28;20073;-73
2022/11/03 08:41:28;;;;;;;18.45;8.57;;;;;;;16.46;95.63;101373.16;5011279;28;20054;-74
2022/11/03 08:43:56;;;;;;;18.85;9.10;;;;;;;16.45;96.96;101378.97;5011722;28;20397;-73
2022/11/03 08:46:24;;;;;;;17.55;8.40;;;;;;;16.58;96.18;101378.22;5011630;28;20057;-73
2022/11/03 08:48:52;;;;;;;21.20;10.38;;;;;;;16.82;96.39;101370.91;5015123;28;20057;-74
2022/11/03 08:51:19;;;;;;;20.75;10.27;;;;;;;17.01;93.65;101368.09;5015571;28;20497;-74
2022/11/03 08:53:52;;;;;;;22.10;9.73;;;;;;;17.23;93.64;101372.13;5015448;28;20050;-74
2022/11/03 08:56:20;;;;;;;17.83;9.43;;;;;;;17.35;91.59;101369.69;5014788;28;20057;-74
2022/11/03 08:58:49;;;;;;;24.02;10.30;;;;;;;17.59;91.88;101363.94;5014874;28;20692;-74
2022/11/03 09:01:17;;;;;;;17.77;9.30;;;;;;;18.13;88.07;101360.59;5014908;28;20053;-74
2022/11/03 09:03:45;;;;;;;23.00;11.15;;;;;;;18.56;86.84;101347.38;5014413;28;20046;-73
2022/11/03 09:06:13;;;;;;;18.15;9.98;;;;;;;18.50;87.40;101338.38;5014905;28;20400;-73
2022/11/03 09:08:41;;;;;;;25.42;10.68;;;;;;;18.98;85.23;101344.38;5014317;28;20509;-74
2022/11/03 09:11:29;;;;;;;17.85;8.93;;;;;;;19.19;81.40;101344.66;5014323;28;20053;-74
2022/11/03 09:13:57;;;;;;;21.30;10.35;;;;;;;19.38;79.16;101339.97;5014263;28;20496;-74
2022/11/03 09:16:25;;;;;;;22.60;10.43;;;;;;;19.25;79.46;101342.53;5014392;28;20046;-74
2022/11/03 09:18:53;;;;;;;17.65;9.52;;;;;;;19.24;80.28;101338.13;5014113;28;20049;-74
2022/11/03 09:21:21;;;;;;;23.38;11.00;;;;;;;18.93;81.87;101328.66;5014355;28;20050;-74
2022/11/03 09:23:49;;;;;;;24.73;12.90;;;;;;;18.79;83.56;101333.50;5012952;28;20054;-74
2022/11/03 09:26:17;;;;;;;24.25;11.90;;;;;;;18.75;85.33;101324.16;5014271;28;20060;-74
2022/11/03 09:28:45;;;;;;;23.20;11.70;;;;;;;18.76;85.16;101323.03;5014428;28;20508;-73
2022/11/03 09:31:14;;;;;;;22.55;12.15;;;;;;;18.84;85.47;101327.00;5014082;28;20053;-74
2022/11/03 09:33:42;;;;;;;26.17;12.23;;;;;;;18.90;83.64;101323.78;5014302;28;20045;-74
2022/11/03 09:36:10;;;;;;;23.60;12.77;;;;;;;19.11;82.05;101314.09;5001245;28;20497;-73
2022/11/03 09:38:37;;;;;;;25.88;12.40;;;;;;;19.51;80.36;101322.41;5013892;28;20049;-73
2022/11/03 09:41:05;;;;;;;29.17;12.45;;;;;;;19.62;80.87;101325.66;5014218;28;20038;-73
2022/11/03 09:43:56;;;;;;;26.58;12.65;;;;;;;19.94;80.17;101325.56;5013897;28;20065;-73
2022/11/03 09:46:27;;;;;;;25.17;10.95;;;;;;;20.43;78.24;101310.66;5014289;28;20076;-73
2022/11/03 09:48:56;;;;;;;21.75;10.63;;;;;;;20.54;76.13;101311.97;5014275;28;20054;-73
2022/11/03 09:51:26;;;;;;;18.73;11.15;;;;;;;20.46;75.21;101316.38;5013978;28;20050;-74
2022/11/03 09:54:00;;;;;;;19.30;10.43;;;;;;;20.87;74.48;101305.03;5013799;28;20497;-74
2022/11/03 09:56:29;;;;;;;19.48;10.60;;;;;;;20.58;75.01;101301.78;5014113;28;20042;-73
2022/11/03 09:58:58;;;;;;;21.50;11.35;;;;;;;20.56;74.09;101297.72;5012826;28;20371;-74
2022/11/03 10:01:26;;;;;;;20.45;10.77;;;;;;;20.31;77.10;101298.25;5013941;28;20058;-73
2022/11/03 10:03:58;;;;;;;24.73;12.68;;;;;;;20.33;76.93;101290.41;5013259;28;20046;-73
2022/11/03 10:06:28;;;;;;;23.55;12.57;;;;;;;20.21;77.06;101291.09;5013506;28;20053;-73
2022/11/03 10:08:55;;;;;;;24.05;12.07;;;;;;;20.35;74.87;101293.69;5013694;28;20049;-74
2022/11/03 10:11:23;;;;;;;24.50;13.07;;;;;;;20.31;76.07;101286.31;5013401;28;20057;-73
2022/11/03 10:13:55;;;;;;;34.95;15.10;;;;;;;20.31;76.30;101286.31;5013253;28;20064;-73
2022/11/03 10:16:25;;;;;;;31.60;14.77;;;;;;;20.36;76.75;101286.16;5013634;28;20461;-73
2022/11/03 10:18:53;;;;;;;28.60;13.93;;;;;;;20.23;75.83;101286.00;5013532;28;20046;-73
2022/11/03 10:21:32;;;;;;;27.35;12.93;;;;;;;20.35;75.61;101288.13;5013426;28;20052;-73
2022/11/03 10:24:00;;;;;;;27.40;13.40;;;;;;;19.99;77.56;101273.44;5013143;28;20042;-74
2022/11/03 10:26:34;;;;;;;25.13;12.88;;;;;;;20.07;77.34;101270.97;5013167;28;20065;-73
2022/11/03 10:29:08;;;;;;;31.25;15.25;;;;;;;20.22;77.89;101272.44;5013333;28;20054;-73
2022/11/03 10:31:41;;;;;;;30.88;14.48;;;;;;;20.05;78.38;101274.09;5013036;28;20045;-73
2022/11/03 10:34:36;;;;;;;30.55;16.20;;;;;;;19.91;78.83;101267.84;5013207;28;20505;-73
2022/11/03 10:37:24;;;;;;;29.33;15.10;;;;;;;19.98;78.42;101252.38;5010833;28;20412;-73
2022/11/03 10:39:54;;;;;;;30.23;16.92;;;;;;;20.10;78.79;101260.03;5008283;28;20057;-74
2022/11/03 10:42:24;;;;;;;30.98;17.35;;;;;;;20.12;78.35;101254.97;5013145;28;20054;-74
2022/11/03 10:45:21;;;;;;;32.50;16.00;;;;;;;20.16;77.77;101252.34;5013202;28;20046;-74
2022/11/03 10:48:05;;;;;;;33.40;17.73;;;;;;;20.17;78.54;101253.97;5007816;28;20061;-75
2022/11/03 10:50:34;;;;;;;35.20;16.65;;;;;;;20.24;78.57;101247.94;5012273;28;20057;-74
2022/11/03 10:53:02;;;;;;;37.10;18.17;;;;;;;20.29;77.80;101256.09;5013170;28;20060;-74
2022/11/03 10:55:30;;;;;;;38.90;18.50;;;;;;;20.12;78.15;101252.19;5012868;28;20073;-74
2022/11/03 10:57:58;;;;;;;35.10;17.75;;;;;;;20.25;78.92;101250.34;5012741;28;20424;-74
2022/11/03 11:00:26;;;;;;;39.88;19.35;;;;;;;20.51;78.35;101237.53;5012406;28;20046;-74
2022/11/03 11:02:59;;;;;;;35.13;18.92;;;;;;;20.50;77.49;101227.56;5012139;28;20053;-74
2022/11/03 11:05:27;;;;;;;42.47;19.17;;;;;;;20.66;75.79;101217.53;5011872;28;20053;-74
2022/11/03 11:07:55;;;;;;;39.40;20.98;;;;;;;20.76;77.23;101207.19;5012735;28;20050;-74
2022/11/03 11:10:25;;;;;;;35.85;19.77;;;;;;;20.51;76.96;101223.63;5012061;28;20517;-74
2022/11/03 11:13:16;;;;;;;31.98;18.02;;;;;;;20.59;77.51;101213.66;5012854;28;20061;-74
2022/11/03 11:15:45;;;;;;;37.15;19.00;;;;;;;20.56;77.46;101212.34;5012175;28;20515;-74
2022/11/03 11:18:28;;;;;;;44.88;21.40;;;;;;;20.29;78.81;101206.06;5012437;28;20076;-75
2022/11/03 11:21:01;;;;;;;38.30;20.27;;;;;;;20.24;78.08;101207.03;5013180;28;20048;-75
2022/11/03 11:23:29;;;;;;;38.90;20.10;;;;;;;20.58;77.40;101198.91;5012389;28;20053;-75
2022/11/03 11:26:09;;;;;;;39.45;22.00;;;;;;;20.81;78.47;101187.53;5012071;28;20050;-75
2022/11/03 11:28:39;;;;;;;40.22;20.02;;;;;;;20.86;75.22;101181.81;5012157;28;20537;-75
2022/11/03 11:31:31;;;;;;;39.22;19.90;;;;;;;21.12;74.87;101180.03;5012496;28;20056;-75
2022/11/03 11:34:08;;;;;;;36.35;19.02;;;;;;;21.28;73.65;101172.69;5007694;28;20070;-76
2022/11/03 11:36:38;;;;;;;39.20;18.95;;;;;;;21.38;73.55;101177.03;4995144;28;20053;-75
2022/11/03 11:39:19;;;;;;;36.75;18.67;;;;;;;21.58;72.47;101169.00;5012042;28;20069;-75
2022/11/03 11:42:08;;;;;;;33.45;17.05;;;;;;;21.45;71.10;101173.69;5012271;28;20520;-75
2022/11/03 11:44:44;;;;;;;35.97;18.63;;;;;;;21.39;71.63;101173.09;5012005;28;20393;-75
2022/11/03 11:47:42;;;;;;;36.45;18.25;;;;;;;20.73;75.34;101157.81;5012106;28;20038;-75
2022/11/03 11:50:13;;;;;;;34.53;17.15;;;;;;;20.94;74.20;101158.69;5011686;28;20057;-75
2022/11/03 11:52:48;;;;;;;37.42;19.63;;;;;;;20.68;75.78;101142.94;5012074;28;20050;-75
2022/11/03 11:55:41;;;;;;;33.95;17.85;;;;;;;20.65;75.34;101135.28;5012027;28;20049;-75